sensor_id;sensor_type;location;lat;lon;timestamp;temperature;humidity
68804;SHT31;55787;52.678;13.314;2023-01-06T00:00:35;1.98;94.89
68804;SHT31;55787;52.678;13.314;2023-01-06T00:03:02;2.03;94.83
68804;SHT31;55787;52.678;13.314;2023-01-06T00:05:29;2.07;94.73
68804;SHT31;55787;52.678;13.314;2023-01-06T00:07:56;2.13;94.46
68804;SHT31;55787;52.678;13.314;2023-01-06T00:10:23;2.20;95.28
68804;SHT31;55787;52.678;13.314;2023-01-06T00:12:50;2.23;95.09
68804;SHT31;55787;52.678;13.314;2023-01-06T00:15:17;2.29;94.56
68804;SHT31;55787;52.678;13.314;2023-01-06T00:17:44;2.37;94.23
68804;SHT31;55787;52.678;13.314;2023-01-06T00:20:12;2.38;94.15
68804;SHT31;55787;52.678;13.314;2023-01-06T00:22:40;2.42;94.23
68804;SHT31;55787;52.678;13.314;2023-01-06T00:25:08;2.44;94.09
68804;SHT31;55787;52.678;13.314;2023-01-06T00:27:38;2.42;94.24
68804;SHT31;55787;52.678;13.314;2023-01-06T00:30:06;2.42;94.38
68804;SHT31;55787;52.678;13.314;2023-01-06T00:32:33;2.48;94.41
68804;SHT31;55787;52.678;13.314;2023-01-06T00:35:00;2.52;94.47
68804;SHT31;55787;52.678;13.314;2023-01-06T00:37:27;2.54;94.56
68804;SHT31;55787;52.678;13.314;2023-01-06T00:39:53;2.57;94.50
68804;SHT31;55787;52.678;13.314;2023-01-06T00:42:20;2.61;94.68
68804;SHT31;55787;52.678;13.314;2023-01-06T00:44:48;2.61;94.49
68804;SHT31;55787;52.678;13.314;2023-01-06T00:47:15;2.62;94.50
68804;SHT31;55787;52.678;13.314;2023-01-06T00:49:42;2.65;94.43
68804;SHT31;55787;52.678;13.314;2023-01-06T00:52:09;2.64;94.46
68804;SHT31;55787;52.678;13.314;2023-01-06T00:54:36;2.61;94.43
68804;SHT31;55787;52.678;13.314;2023-01-06T00:57:05;2.60;94.41
68804;SHT31;55787;52.678;13.314;2023-01-06T00:59:32;2.60;93.85
68804;SHT31;55787;52.678;13.314;2023-01-06T01:01:59;2.60;94.08
68804;SHT31;55787;52.678;13.314;2023-01-06T01:04:26;2.62;94.29
68804;SHT31;55787;52.678;13.314;2023-01-06T01:06:53;2.61;94.20
68804;SHT31;55787;52.678;13.314;2023-01-06T01:09:24;2.62;94.09
68804;SHT31;55787;52.678;13.314;2023-01-06T01:11:52;2.64;93.91
68804;SHT31;55787;52.678;13.314;2023-01-06T01:17:09;2.66;93.70
68804;SHT31;55787;52.678;13.314;2023-01-06T01:19:36;2.71;93.39
68804;SHT31;55787;52.678;13.314;2023-01-06T01:22:04;2.70;93.41
68804;SHT31;55787;52.678;13.314;2023-01-06T01:24:31;2.72;93.50
68804;SHT31;55787;52.678;13.314;2023-01-06T01:26:58;2.72;93.22
68804;SHT31;55787;52.678;13.314;2023-01-06T01:29:25;2.72;93.17
68804;SHT31;55787;52.678;13.314;2023-01-06T01:31:52;2.72;93.48
68804;SHT31;55787;52.678;13.314;2023-01-06T01:34:21;2.70;93.61
68804;SHT31;55787;52.678;13.314;2023-01-06T01:36:50;2.68;93.45
68804;SHT31;55787;52.678;13.314;2023-01-06T01:39:20;2.70;93.75
68804;SHT31;55787;52.678;13.314;2023-01-06T01:41:48;2.68;93.84
68804;SHT31;55787;52.678;13.314;2023-01-06T01:47:34;2.74;93.41
68804;SHT31;55787;52.678;13.314;2023-01-06T01:50:22;2.79;93.10
68804;SHT31;55787;52.678;13.314;2023-01-06T01:52:53;2.92;92.64
68804;SHT31;55787;52.678;13.314;2023-01-06T01:55:22;3.01;92.09
68804;SHT31;55787;52.678;13.314;2023-01-06T01:57:57;3.05;91.67
68804;SHT31;55787;52.678;13.314;2023-01-06T02:00:25;3.08;91.42
68804;SHT31;55787;52.678;13.314;2023-01-06T02:02:51;3.18;91.20
68804;SHT31;55787;52.678;13.314;2023-01-06T02:05:22;3.20;90.65
68804;SHT31;55787;52.678;13.314;2023-01-06T02:07:49;3.27;90.32
68804;SHT31;55787;52.678;13.314;2023-01-06T02:10:18;3.34;90.11
68804;SHT31;55787;52.678;13.314;2023-01-06T02:12:47;3.44;89.47
68804;SHT31;55787;52.678;13.314;2023-01-06T02:15:30;3.43;89.58
68804;SHT31;55787;52.678;13.314;2023-01-06T02:34:15;3.80;87.94
68804;SHT31;55787;52.678;13.314;2023-01-06T02:51:41;3.71;88.29
68804;SHT31;55787;52.678;13.314;2023-01-06T02:56:38;3.77;88.35
68804;SHT31;55787;52.678;13.314;2023-01-06T02:59:13;3.87;88.14
68804;SHT31;55787;52.678;13.314;2023-01-06T03:01:43;3.92;87.89
68804;SHT31;55787;52.678;13.314;2023-01-06T03:04:18;3.91;87.95
68804;SHT31;55787;52.678;13.314;2023-01-06T03:06:49;3.95;87.22
68804;SHT31;55787;52.678;13.314;2023-01-06T03:09:19;3.94;87.57
68804;SHT31;55787;52.678;13.314;2023-01-06T03:11:49;3.99;87.54
68804;SHT31;55787;52.678;13.314;2023-01-06T03:14:26;3.97;87.32
68804;SHT31;55787;52.678;13.314;2023-01-06T03:16:55;3.97;87.34
68804;SHT31;55787;52.678;13.314;2023-01-06T03:19:22;4.01;87.04
68804;SHT31;55787;52.678;13.314;2023-01-06T03:21:50;4.11;86.85
68804;SHT31;55787;52.678;13.314;2023-01-06T03:24:20;4.13;86.58
68804;SHT31;55787;52.678;13.314;2023-01-06T03:26:47;4.15;86.50
68804;SHT31;55787;52.678;13.314;2023-01-06T03:29:15;4.16;86.24
68804;SHT31;55787;52.678;13.314;2023-01-06T03:31:57;4.09;86.56
68804;SHT31;55787;52.678;13.314;2023-01-06T03:37:32;4.18;86.51
68804;SHT31;55787;52.678;13.314;2023-01-06T03:54:40;4.13;86.64
68804;SHT31;55787;52.678;13.314;2023-01-06T03:57:21;4.15;86.89
68804;SHT31;55787;52.678;13.314;2023-01-06T04:00:21;4.26;86.28
68804;SHT31;55787;52.678;13.314;2023-01-06T04:02:50;4.26;86.09
68804;SHT31;55787;52.678;13.314;2023-01-06T04:05:20;4.25;86.17
68804;SHT31;55787;52.678;13.314;2023-01-06T04:07:48;4.26;86.33
68804;SHT31;55787;52.678;13.314;2023-01-06T04:10:17;4.32;86.03
68804;SHT31;55787;52.678;13.314;2023-01-06T04:12:44;4.32;86.04
68804;SHT31;55787;52.678;13.314;2023-01-06T04:15:20;4.31;86.31
68804;SHT31;55787;52.678;13.314;2023-01-06T04:17:47;4.38;85.75
68804;SHT31;55787;52.678;13.314;2023-01-06T04:20:17;4.36;85.56
68804;SHT31;55787;52.678;13.314;2023-01-06T04:22:44;4.36;85.64
68804;SHT31;55787;52.678;13.314;2023-01-06T04:25:12;4.43;85.41
68804;SHT31;55787;52.678;13.314;2023-01-06T04:27:38;4.32;85.55
68804;SHT31;55787;52.678;13.314;2023-01-06T04:30:06;4.42;85.54
68804;SHT31;55787;52.678;13.314;2023-01-06T04:32:32;4.46;85.20
68804;SHT31;55787;52.678;13.314;2023-01-06T04:34:59;4.39;85.65
68804;SHT31;55787;52.678;13.314;2023-01-06T04:37:26;4.38;85.34
68804;SHT31;55787;52.678;13.314;2023-01-06T04:39:52;4.38;85.30
68804;SHT31;55787;52.678;13.314;2023-01-06T04:42:19;4.48;85.19
68804;SHT31;55787;52.678;13.314;2023-01-06T04:44:45;4.49;85.08
68804;SHT31;55787;52.678;13.314;2023-01-06T04:47:12;4.40;85.25
68804;SHT31;55787;52.678;13.314;2023-01-06T04:49:39;4.46;85.09
68804;SHT31;55787;52.678;13.314;2023-01-06T04:52:05;4.49;85.19
68804;SHT31;55787;52.678;13.314;2023-01-06T04:54:34;4.49;85.46
68804;SHT31;55787;52.678;13.314;2023-01-06T04:57:01;4.39;85.97
68804;SHT31;55787;52.678;13.314;2023-01-06T04:59:28;4.38;85.87
68804;SHT31;55787;52.678;13.314;2023-01-06T05:01:54;4.48;85.69
68804;SHT31;55787;52.678;13.314;2023-01-06T05:04:21;4.53;85.77
68804;SHT31;55787;52.678;13.314;2023-01-06T05:06:48;4.53;85.80
68804;SHT31;55787;52.678;13.314;2023-01-06T05:09:14;4.52;86.12
68804;SHT31;55787;52.678;13.314;2023-01-06T05:11:41;4.48;86.35
68804;SHT31;55787;52.678;13.314;2023-01-06T05:14:07;4.42;86.75
68804;SHT31;55787;52.678;13.314;2023-01-06T05:16:34;4.48;86.46
68804;SHT31;55787;52.678;13.314;2023-01-06T05:19:01;4.48;86.47
68804;SHT31;55787;52.678;13.314;2023-01-06T05:21:28;4.46;86.41
68804;SHT31;55787;52.678;13.314;2023-01-06T05:23:58;4.40;86.95
68804;SHT31;55787;52.678;13.314;2023-01-06T05:26:26;4.38;87.27
68804;SHT31;55787;52.678;13.314;2023-01-06T05:28:53;4.38;87.44
68804;SHT31;55787;52.678;13.314;2023-01-06T05:31:21;4.40;88.18
68804;SHT31;55787;52.678;13.314;2023-01-06T05:33:47;4.49;88.06
68804;SHT31;55787;52.678;13.314;2023-01-06T05:36:15;4.42;88.01
68804;SHT31;55787;52.678;13.314;2023-01-06T05:38:43;4.42;88.22
68804;SHT31;55787;52.678;13.314;2023-01-06T05:41:10;4.40;88.53
68804;SHT31;55787;52.678;13.314;2023-01-06T05:43:37;4.42;88.27
68804;SHT31;55787;52.678;13.314;2023-01-06T05:46:05;4.50;88.52
68804;SHT31;55787;52.678;13.314;2023-01-06T05:48:33;4.59;88.24
68804;SHT31;55787;52.678;13.314;2023-01-06T05:51:04;4.56;88.17
68804;SHT31;55787;52.678;13.314;2023-01-06T05:53:36;4.57;88.71
68804;SHT31;55787;52.678;13.314;2023-01-06T05:56:08;4.48;88.97
68804;SHT31;55787;52.678;13.314;2023-01-06T05:58:35;4.53;89.50
68804;SHT31;55787;52.678;13.314;2023-01-06T06:01:04;4.42;90.00
68804;SHT31;55787;52.678;13.314;2023-01-06T06:03:31;4.39;91.19
68804;SHT31;55787;52.678;13.314;2023-01-06T06:06:05;4.36;91.15
68804;SHT31;55787;52.678;13.314;2023-01-06T06:08:32;4.35;91.48
68804;SHT31;55787;52.678;13.314;2023-01-06T06:11:06;4.45;91.43
68804;SHT31;55787;52.678;13.314;2023-01-06T06:13:35;4.39;91.86
68804;SHT31;55787;52.678;13.314;2023-01-06T06:16:06;4.31;92.48
68804;SHT31;55787;52.678;13.314;2023-01-06T06:18:35;4.39;92.76
68804;SHT31;55787;52.678;13.314;2023-01-06T06:21:07;4.39;92.72
68804;SHT31;55787;52.678;13.314;2023-01-06T06:23:34;4.33;93.08
68804;SHT31;55787;52.678;13.314;2023-01-06T06:26:02;4.25;93.52
68804;SHT31;55787;52.678;13.314;2023-01-06T06:28:30;4.23;93.98
68804;SHT31;55787;52.678;13.314;2023-01-06T06:33:34;4.19;94.53
68804;SHT31;55787;52.678;13.314;2023-01-06T06:36:02;4.16;94.61
68804;SHT31;55787;52.678;13.314;2023-01-06T06:38:30;4.21;94.54
68804;SHT31;55787;52.678;13.314;2023-01-06T06:40:56;4.26;94.51
68804;SHT31;55787;52.678;13.314;2023-01-06T06:43:23;4.23;94.78
68804;SHT31;55787;52.678;13.314;2023-01-06T06:45:49;4.26;94.67
68804;SHT31;55787;52.678;13.314;2023-01-06T06:48:16;4.29;94.77
68804;SHT31;55787;52.678;13.314;2023-01-06T06:50:43;4.25;94.63
68804;SHT31;55787;52.678;13.314;2023-01-06T06:53:09;4.31;94.76
68804;SHT31;55787;52.678;13.314;2023-01-06T06:55:36;4.35;94.59
68804;SHT31;55787;52.678;13.314;2023-01-06T06:58:02;4.42;94.42
68804;SHT31;55787;52.678;13.314;2023-01-06T07:00:29;4.35;94.53
68804;SHT31;55787;52.678;13.314;2023-01-06T07:02:56;4.35;94.70
68804;SHT31;55787;52.678;13.314;2023-01-06T07:05:22;4.38;94.88
68804;SHT31;55787;52.678;13.314;2023-01-06T07:07:51;4.43;94.60
68804;SHT31;55787;52.678;13.314;2023-01-06T07:10:17;4.45;94.90
68804;SHT31;55787;52.678;13.314;2023-01-06T07:12:44;4.38;95.19
68804;SHT31;55787;52.678;13.314;2023-01-06T07:15:10;4.50;95.26
68804;SHT31;55787;52.678;13.314;2023-01-06T07:17:37;4.49;95.26
68804;SHT31;55787;52.678;13.314;2023-01-06T07:20:05;4.52;95.36
68804;SHT31;55787;52.678;13.314;2023-01-06T07:22:31;4.49;95.57
68804;SHT31;55787;52.678;13.314;2023-01-06T07:24:58;4.52;95.88
68804;SHT31;55787;52.678;13.314;2023-01-06T07:27:25;4.52;96.05
68804;SHT31;55787;52.678;13.314;2023-01-06T07:29:51;4.60;95.94
68804;SHT31;55787;52.678;13.314;2023-01-06T07:32:18;4.57;96.01
68804;SHT31;55787;52.678;13.314;2023-01-06T07:34:44;4.60;96.25
68804;SHT31;55787;52.678;13.314;2023-01-06T07:37:11;4.60;96.36
68804;SHT31;55787;52.678;13.314;2023-01-06T07:39:37;4.63;96.56
68804;SHT31;55787;52.678;13.314;2023-01-06T07:42:07;4.67;96.45
68804;SHT31;55787;52.678;13.314;2023-01-06T07:44:34;4.57;96.68
68804;SHT31;55787;52.678;13.314;2023-01-06T07:47:01;4.60;96.76
68804;SHT31;55787;52.678;13.314;2023-01-06T07:49:28;4.49;97.28
68804;SHT31;55787;52.678;13.314;2023-01-06T07:51:55;4.52;97.47
68804;SHT31;55787;52.678;13.314;2023-01-06T07:54:22;4.57;97.71
68804;SHT31;55787;52.678;13.314;2023-01-06T07:56:48;4.66;97.41
68804;SHT31;55787;52.678;13.314;2023-01-06T07:59:15;4.67;97.59
68804;SHT31;55787;52.678;13.314;2023-01-06T08:01:41;4.73;97.65
68804;SHT31;55787;52.678;13.314;2023-01-06T08:04:08;4.91;97.30
68804;SHT31;55787;52.678;13.314;2023-01-06T08:06:38;4.90;97.17
68804;SHT31;55787;52.678;13.314;2023-01-06T08:09:05;4.87;97.58
68804;SHT31;55787;52.678;13.314;2023-01-06T08:11:32;4.81;97.99
68804;SHT31;55787;52.678;13.314;2023-01-06T08:13:58;4.94;97.85
68804;SHT31;55787;52.678;13.314;2023-01-06T08:16:25;4.88;97.98
68804;SHT31;55787;52.678;13.314;2023-01-06T08:18:51;4.88;98.27
68804;SHT31;55787;52.678;13.314;2023-01-06T08:21:18;4.91;98.30
68804;SHT31;55787;52.678;13.314;2023-01-06T08:23:45;4.93;98.47
68804;SHT31;55787;52.678;13.314;2023-01-06T08:26:14;4.94;98.55
68804;SHT31;55787;52.678;13.314;2023-01-06T08:28:41;4.95;98.92
68804;SHT31;55787;52.678;13.314;2023-01-06T08:31:12;5.01;98.88
68804;SHT31;55787;52.678;13.314;2023-01-06T08:33:40;5.01;99.15
68804;SHT31;55787;52.678;13.314;2023-01-06T08:36:09;5.07;99.22
68804;SHT31;55787;52.678;13.314;2023-01-06T08:38:37;5.12;99.00
68804;SHT31;55787;52.678;13.314;2023-01-06T08:41:04;5.15;99.04
68804;SHT31;55787;52.678;13.314;2023-01-06T08:43:31;5.18;98.99
68804;SHT31;55787;52.678;13.314;2023-01-06T08:46:00;5.22;99.09
68804;SHT31;55787;52.678;13.314;2023-01-06T08:48:27;5.25;99.01
68804;SHT31;55787;52.678;13.314;2023-01-06T08:50:54;5.31;99.01
68804;SHT31;55787;52.678;13.314;2023-01-06T08:53:22;5.31;99.14
68804;SHT31;55787;52.678;13.314;2023-01-06T08:55:48;5.38;99.07
68804;SHT31;55787;52.678;13.314;2023-01-06T08:58:15;5.55;98.83
68804;SHT31;55787;52.678;13.314;2023-01-06T09:00:42;5.56;98.68
68804;SHT31;55787;52.678;13.314;2023-01-06T09:03:08;5.56;98.70
68804;SHT31;55787;52.678;13.314;2023-01-06T09:05:35;5.60;98.75
68804;SHT31;55787;52.678;13.314;2023-01-06T09:08:02;5.65;98.99
68804;SHT31;55787;52.678;13.314;2023-01-06T09:10:28;5.72;98.74
68804;SHT31;55787;52.678;13.314;2023-01-06T09:12:55;5.72;98.83
68804;SHT31;55787;52.678;13.314;2023-01-06T09:15:22;5.83;98.81
68804;SHT31;55787;52.678;13.314;2023-01-06T09:17:49;5.82;98.98
68804;SHT31;55787;52.678;13.314;2023-01-06T09:20:15;5.82;99.09
68804;SHT31;55787;52.678;13.314;2023-01-06T09:22:44;5.90;99.12
68804;SHT31;55787;52.678;13.314;2023-01-06T09:25:11;6.03;98.96
68804;SHT31;55787;52.678;13.314;2023-01-06T09:27:38;6.09;98.70
68804;SHT31;55787;52.678;13.314;2023-01-06T09:30:05;6.16;98.56
68804;SHT31;55787;52.678;13.314;2023-01-06T09:32:33;6.20;98.44
68804;SHT31;55787;52.678;13.314;2023-01-06T09:35:00;6.21;98.60
68804;SHT31;55787;52.678;13.314;2023-01-06T09:37:26;6.25;98.65
68804;SHT31;55787;52.678;13.314;2023-01-06T09:39:53;6.30;98.65
68804;SHT31;55787;52.678;13.314;2023-01-06T09:45:19;6.37;98.37
68804;SHT31;55787;52.678;13.314;2023-01-06T09:47:50;6.51;98.37
68804;SHT31;55787;52.678;13.314;2023-01-06T09:52:50;6.62;98.14
68804;SHT31;55787;52.678;13.314;2023-01-06T09:57:57;6.69;98.12
68804;SHT31;55787;52.678;13.314;2023-01-06T10:02:59;6.88;97.89
68804;SHT31;55787;52.678;13.314;2023-01-06T10:17:00;7.12;97.72
68804;SHT31;55787;52.678;13.314;2023-01-06T10:19:53;7.22;97.40
68804;SHT31;55787;52.678;13.314;2023-01-06T10:22:49;7.22;97.80
68804;SHT31;55787;52.678;13.314;2023-01-06T10:27:54;7.33;97.66
68804;SHT31;55787;52.678;13.314;2023-01-06T10:30:28;7.40;97.35
68804;SHT31;55787;52.678;13.314;2023-01-06T10:33:02;7.47;97.07
68804;SHT31;55787;52.678;13.314;2023-01-06T10:35:31;7.48;97.29
68804;SHT31;55787;52.678;13.314;2023-01-06T10:38:02;7.50;97.66
68804;SHT31;55787;52.678;13.314;2023-01-06T10:40:31;7.64;97.18
68804;SHT31;55787;52.678;13.314;2023-01-06T10:43:10;7.67;97.05
68804;SHT31;55787;52.678;13.314;2023-01-06T10:45:45;7.72;97.13
68804;SHT31;55787;52.678;13.314;2023-01-06T10:48:14;7.82;96.73
68804;SHT31;55787;52.678;13.314;2023-01-06T10:50:42;7.86;96.77
68804;SHT31;55787;52.678;13.314;2023-01-06T10:53:12;7.85;96.72
68804;SHT31;55787;52.678;13.314;2023-01-06T10:55:50;7.89;96.60
68804;SHT31;55787;52.678;13.314;2023-01-06T11:01:00;7.86;96.64
68804;SHT31;55787;52.678;13.314;2023-01-06T11:03:27;7.78;97.58
68804;SHT31;55787;52.678;13.314;2023-01-06T11:06:16;7.77;97.41
68804;SHT31;55787;52.678;13.314;2023-01-06T11:08:43;7.81;97.45
68804;SHT31;55787;52.678;13.314;2023-01-06T11:11:14;7.92;97.29
68804;SHT31;55787;52.678;13.314;2023-01-06T11:13:55;7.86;97.65
68804;SHT31;55787;52.678;13.314;2023-01-06T11:16:34;7.84;98.08
68804;SHT31;55787;52.678;13.314;2023-01-06T11:19:04;7.88;97.94
68804;SHT31;55787;52.678;13.314;2023-01-06T11:21:41;7.92;98.01
68804;SHT31;55787;52.678;13.314;2023-01-06T11:24:17;7.92;98.28
68804;SHT31;55787;52.678;13.314;2023-01-06T11:26:51;7.98;98.14
68804;SHT31;55787;52.678;13.314;2023-01-06T11:29:24;7.99;98.24
68804;SHT31;55787;52.678;13.314;2023-01-06T11:31:51;7.99;98.24
68804;SHT31;55787;52.678;13.314;2023-01-06T11:34:21;8.05;98.32
68804;SHT31;55787;52.678;13.314;2023-01-06T11:36:49;8.07;98.02
68804;SHT31;55787;52.678;13.314;2023-01-06T11:39:25;8.06;98.27
68804;SHT31;55787;52.678;13.314;2023-01-06T11:41:54;8.03;98.22
68804;SHT31;55787;52.678;13.314;2023-01-06T11:44:33;8.09;98.18
68804;SHT31;55787;52.678;13.314;2023-01-06T11:47:06;8.10;98.35
68804;SHT31;55787;52.678;13.314;2023-01-06T11:49:40;8.09;98.65
68804;SHT31;55787;52.678;13.314;2023-01-06T11:52:28;8.16;98.57
68804;SHT31;55787;52.678;13.314;2023-01-06T11:57:37;8.26;98.14
68804;SHT31;55787;52.678;13.314;2023-01-06T12:00:28;8.26;98.46
68804;SHT31;55787;52.678;13.314;2023-01-06T12:05:42;8.50;98.08
68804;SHT31;55787;52.678;13.314;2023-01-06T12:10:47;8.52;97.90
68804;SHT31;55787;52.678;13.314;2023-01-06T12:13:15;8.54;98.00
68804;SHT31;55787;52.678;13.314;2023-01-06T12:15:44;8.64;97.81
68804;SHT31;55787;52.678;13.314;2023-01-06T12:18:20;8.64;98.12
68804;SHT31;55787;52.678;13.314;2023-01-06T12:20:50;8.71;97.52
68804;SHT31;55787;52.678;13.314;2023-01-06T12:23:30;8.70;97.73
68804;SHT31;55787;52.678;13.314;2023-01-06T12:26:01;8.68;97.45
68804;SHT31;55787;52.678;13.314;2023-01-06T12:28:40;8.77;97.60
68804;SHT31;55787;52.678;13.314;2023-01-06T12:34:03;8.83;97.54
68804;SHT31;55787;52.678;13.314;2023-01-06T12:36:50;8.81;97.26
68804;SHT31;55787;52.678;13.314;2023-01-06T12:40:01;8.84;97.88
68804;SHT31;55787;52.678;13.314;2023-01-06T12:43:02;8.88;97.80
68804;SHT31;55787;52.678;13.314;2023-01-06T12:45:57;8.91;97.65
68804;SHT31;55787;52.678;13.314;2023-01-06T12:48:47;8.94;97.76
68804;SHT31;55787;52.678;13.314;2023-01-06T12:51:20;9.02;97.49
68804;SHT31;55787;52.678;13.314;2023-01-06T12:54:14;9.08;97.19
68804;SHT31;55787;52.678;13.314;2023-01-06T13:03:21;9.08;97.43
68804;SHT31;55787;52.678;13.314;2023-01-06T13:12:04;9.21;97.16
68804;SHT31;55787;52.678;13.314;2023-01-06T13:14:58;9.28;97.01
68804;SHT31;55787;52.678;13.314;2023-01-06T13:17:54;9.35;97.00
68804;SHT31;55787;52.678;13.314;2023-01-06T13:20:33;9.32;96.92
68804;SHT31;55787;52.678;13.314;2023-01-06T13:26:12;9.33;96.64
68804;SHT31;55787;52.678;13.314;2023-01-06T13:38:13;9.43;96.63
68804;SHT31;55787;52.678;13.314;2023-01-06T13:40:43;9.43;96.09
68804;SHT31;55787;52.678;13.314;2023-01-06T13:43:22;9.42;96.02
68804;SHT31;55787;52.678;13.314;2023-01-06T13:45:53;9.39;96.08
68804;SHT31;55787;52.678;13.314;2023-01-06T13:48:24;9.45;95.69
68804;SHT31;55787;52.678;13.314;2023-01-06T13:50:51;9.47;94.98
68804;SHT31;55787;52.678;13.314;2023-01-06T13:53:20;9.46;95.32
68804;SHT31;55787;52.678;13.314;2023-01-06T13:55:48;9.52;95.15
68804;SHT31;55787;52.678;13.314;2023-01-06T13:58:35;9.53;94.39
68804;SHT31;55787;52.678;13.314;2023-01-06T14:01:29;9.55;94.29
68804;SHT31;55787;52.678;13.314;2023-01-06T14:07:12;9.66;94.17
68804;SHT31;55787;52.678;13.314;2023-01-06T14:09:46;9.62;93.93
68804;SHT31;55787;52.678;13.314;2023-01-06T14:12:20;9.66;93.61
68804;SHT31;55787;52.678;13.314;2023-01-06T14:15:03;9.59;94.39
68804;SHT31;55787;52.678;13.314;2023-01-06T14:17:40;9.56;94.33
68804;SHT31;55787;52.678;13.314;2023-01-06T14:25:39;9.63;94.07
68804;SHT31;55787;52.678;13.314;2023-01-06T14:30:49;9.46;94.75
68804;SHT31;55787;52.678;13.314;2023-01-06T14:35:49;9.39;95.57
68804;SHT31;55787;52.678;13.314;2023-01-06T14:40:50;9.42;95.69
68804;SHT31;55787;52.678;13.314;2023-01-06T14:46:29;9.38;95.94
68804;SHT31;55787;52.678;13.314;2023-01-06T14:49:00;9.38;95.89
68804;SHT31;55787;52.678;13.314;2023-01-06T14:51:28;9.33;95.97
68804;SHT31;55787;52.678;13.314;2023-01-06T14:56:37;9.25;96.11
68804;SHT31;55787;52.678;13.314;2023-01-06T14:59:09;9.19;96.21
68804;SHT31;55787;52.678;13.314;2023-01-06T15:01:39;9.12;96.15
68804;SHT31;55787;52.678;13.314;2023-01-06T15:04:20;9.12;96.31
68804;SHT31;55787;52.678;13.314;2023-01-06T15:07:18;9.14;96.29
68804;SHT31;55787;52.678;13.314;2023-01-06T15:09:46;9.10;96.40
68804;SHT31;55787;52.678;13.314;2023-01-06T15:12:32;9.01;96.67
68804;SHT31;55787;52.678;13.314;2023-01-06T15:15:39;9.01;96.55
68804;SHT31;55787;52.678;13.314;2023-01-06T15:18:06;8.95;96.58
68804;SHT31;55787;52.678;13.314;2023-01-06T15:20:34;8.83;96.62
68804;SHT31;55787;52.678;13.314;2023-01-06T15:23:04;8.73;97.43
68804;SHT31;55787;52.678;13.314;2023-01-06T15:25:32;8.73;97.52
68804;SHT31;55787;52.678;13.314;2023-01-06T15:28:00;8.68;97.66
68804;SHT31;55787;52.678;13.314;2023-01-06T15:30:28;8.63;97.74
68804;SHT31;55787;52.678;13.314;2023-01-06T15:33:00;8.56;98.00
68804;SHT31;55787;52.678;13.314;2023-01-06T15:35:30;8.46;97.98
68804;SHT31;55787;52.678;13.314;2023-01-06T15:38:03;8.39;98.10
68804;SHT31;55787;52.678;13.314;2023-01-06T15:40:30;8.43;98.32
68804;SHT31;55787;52.678;13.314;2023-01-06T15:42:57;8.44;97.97
68804;SHT31;55787;52.678;13.314;2023-01-06T15:45:29;8.42;97.99
68804;SHT31;55787;52.678;13.314;2023-01-06T15:48:01;8.29;98.11
68804;SHT31;55787;52.678;13.314;2023-01-06T15:50:33;8.32;98.45
68804;SHT31;55787;52.678;13.314;2023-01-06T15:53:03;8.23;98.33
68804;SHT31;55787;52.678;13.314;2023-01-06T15:55:34;8.33;98.04
68804;SHT31;55787;52.678;13.314;2023-01-06T16:00:50;8.37;97.76
68804;SHT31;55787;52.678;13.314;2023-01-06T16:03:22;8.34;97.34
68804;SHT31;55787;52.678;13.314;2023-01-06T16:05:50;8.29;97.56
68804;SHT31;55787;52.678;13.314;2023-01-06T16:08:28;8.21;97.51
68804;SHT31;55787;52.678;13.314;2023-01-06T16:14:01;8.28;96.87
68804;SHT31;55787;52.678;13.314;2023-01-06T16:16:37;8.28;96.71
68804;SHT31;55787;52.678;13.314;2023-01-06T16:19:09;8.28;96.48
68804;SHT31;55787;52.678;13.314;2023-01-06T16:21:41;8.19;96.24
68804;SHT31;55787;52.678;13.314;2023-01-06T16:24:25;8.15;96.23
68804;SHT31;55787;52.678;13.314;2023-01-06T16:26:59;8.19;95.93
68804;SHT31;55787;52.678;13.314;2023-01-06T16:29:35;8.15;95.82
68804;SHT31;55787;52.678;13.314;2023-01-06T16:34:54;8.09;95.91
68804;SHT31;55787;52.678;13.314;2023-01-06T16:37:26;8.06;95.84
68804;SHT31;55787;52.678;13.314;2023-01-06T16:39:56;8.07;95.85
68804;SHT31;55787;52.678;13.314;2023-01-06T16:42:30;8.02;95.76
68804;SHT31;55787;52.678;13.314;2023-01-06T16:45:12;8.09;95.45
68804;SHT31;55787;52.678;13.314;2023-01-06T16:47:40;8.05;95.68
68804;SHT31;55787;52.678;13.314;2023-01-06T16:50:23;7.99;95.79
68804;SHT31;55787;52.678;13.314;2023-01-06T16:53:00;8.02;95.66
68804;SHT31;55787;52.678;13.314;2023-01-06T16:55:27;7.98;95.70
68804;SHT31;55787;52.678;13.314;2023-01-06T16:57:56;7.99;95.93
68804;SHT31;55787;52.678;13.314;2023-01-06T17:00:23;7.95;96.20
68804;SHT31;55787;52.678;13.314;2023-01-06T17:02:51;7.95;96.34
68804;SHT31;55787;52.678;13.314;2023-01-06T17:05:20;7.92;96.51
68804;SHT31;55787;52.678;13.314;2023-01-06T17:07:47;7.92;96.40
68804;SHT31;55787;52.678;13.314;2023-01-06T17:10:17;7.92;95.78
68804;SHT31;55787;52.678;13.314;2023-01-06T17:12:52;7.96;95.58
68804;SHT31;55787;52.678;13.314;2023-01-06T17:15:37;7.92;95.54
68804;SHT31;55787;52.678;13.314;2023-01-06T17:18:22;7.89;95.41
68804;SHT31;55787;52.678;13.314;2023-01-06T17:20:50;7.95;95.11
68804;SHT31;55787;52.678;13.314;2023-01-06T17:23:18;8.01;94.36
68804;SHT31;55787;52.678;13.314;2023-01-06T17:25:45;8.03;93.99
68804;SHT31;55787;52.678;13.314;2023-01-06T17:28:20;8.07;93.60
68804;SHT31;55787;52.678;13.314;2023-01-06T17:30:48;7.95;93.90
68804;SHT31;55787;52.678;13.314;2023-01-06T17:33:15;7.98;93.79
68804;SHT31;55787;52.678;13.314;2023-01-06T17:35:46;7.96;93.93
68804;SHT31;55787;52.678;13.314;2023-01-06T17:38:18;7.92;93.77
68804;SHT31;55787;52.678;13.314;2023-01-06T17:40:45;7.91;93.81
68804;SHT31;55787;52.678;13.314;2023-01-06T17:43:22;7.94;93.37
68804;SHT31;55787;52.678;13.314;2023-01-06T17:45:50;7.85;93.58
68804;SHT31;55787;52.678;13.314;2023-01-06T17:48:17;7.91;93.23
68804;SHT31;55787;52.678;13.314;2023-01-06T17:50:54;7.82;93.18
68804;SHT31;55787;52.678;13.314;2023-01-06T17:53:35;7.74;93.52
68804;SHT31;55787;52.678;13.314;2023-01-06T17:56:21;7.64;94.14
68804;SHT31;55787;52.678;13.314;2023-01-06T17:58:48;7.51;94.50
68804;SHT31;55787;52.678;13.314;2023-01-06T18:01:21;7.51;94.32
68804;SHT31;55787;52.678;13.314;2023-01-06T18:03:49;7.46;94.46
68804;SHT31;55787;52.678;13.314;2023-01-06T18:06:22;7.47;94.39
68804;SHT31;55787;52.678;13.314;2023-01-06T18:11:34;7.47;94.53
68804;SHT31;55787;52.678;13.314;2023-01-06T18:16:55;7.46;95.28
68804;SHT31;55787;52.678;13.314;2023-01-06T18:21:53;7.44;95.52
68804;SHT31;55787;52.678;13.314;2023-01-06T18:24:33;7.41;95.51
68804;SHT31;55787;52.678;13.314;2023-01-06T18:27:03;7.48;95.82
68804;SHT31;55787;52.678;13.314;2023-01-06T18:29:38;7.43;96.01
68804;SHT31;55787;52.678;13.314;2023-01-06T18:34:49;7.26;96.04
68804;SHT31;55787;52.678;13.314;2023-01-06T18:37:20;7.23;96.33